Kasagimaru — JJ3905 — position and weather

sailwx.info

Track history (hours):
 
Tides and Currents Weather Stations Pressure Air Temp Water Temp Dewpoint Dewpoint Depression Visibility Wind Speed Wind Dir Waves Ship Positions

Kasagimaru

Last reported at 2017-Jun-23 07:36 UTC. Time now 2017-Jun-23 10:37 UTC.
Position N 34°33' E 135°27'.

Length 42 m; draft 3.5 m.

Type: Tug. MMSI: 431300268.

Date/timePositionNaut miles runAvg speedWind from/ knotsBaromVisibWave heightAir tempDewpointWater temp
2017-Jun-23 07:36N 34°33' E 135°27'0 0.0
2017-Jun-23 07:28N 34°33' E 135°27'0 0.0
2017-Jun-23 06:59N 34°33' E 135°27'4 8.3
2017-Jun-23 06:31N 34°36' E 135°23'4 7.6
2017-Jun-23 06:00N 34°38' E 135°27'0 0.4
2017-Jun-23 05:31N 34°39' E 135°26'2 3.7
2017-Jun-23 05:00N 34°39' E 135°24'5 9.2
2017-Jun-23 04:26N 34°33' E 135°25'2 1.0
2017-Jun-23 02:47N 34°33' E 135°27'0 0.0
2017-Jun-23 02:15N 34°33' E 135°27'0 0.0
2017-Jun-23 01:53N 34°33' E 135°27'0 0.0
2017-Jun-23 01:30N 34°33' E 135°27'0 0.1
2017-Jun-23 00:59N 34°33' E 135°27'2 4.4
2017-Jun-23 00:31N 34°33' E 135°24'0 0.5
2017-Jun-22 23:59N 34°34' E 135°24'2 0.1
2017-Jun-22 02:26N 34°33' E 135°27'2 4.1
2017-Jun-22 01:59N 34°33' E 135°24'0 0.1
2017-Jun-22 01:16N 34°33' E 135°24'0 0.2
2017-Jun-22 00:59N 34°33' E 135°24'3 5.2
2017-Jun-22 00:22N 34°33' E 135°20'0 0.3
2017-Jun-22 00:00N 34°33' E 135°20'4 7.4
2017-Jun-21 23:30N 34°33' E 135°25'2 0.1
2017-Jun-21 00:18N 34°33' E 135°27'0 0.0
2017-Jun-20 23:57N 34°33' E 135°27'0 0.0
2017-Jun-20 23:24N 34°33' E 135°27'0 0.0
2017-Jun-20 21:39N 34°33' E 135°27'2 7.8
2017-Jun-20 21:25N 34°33' E 135°24'2 4.1
2017-Jun-20 21:00N 34°32' E 135°24'1 1.8
2017-Jun-20 20:30N 34°33' E 135°24'2 4.6
2017-Jun-20 19:59N 34°33' E 135°27'0 0.0
2017-Jun-20 13:07N 34°33' E 135°27'1 9.7
2017-Jun-20 12:58N 34°33' E 135°25'612.6
2017-Jun-20 12:29N 34°30' E 135°18'612.9
2017-Jun-20 12:00N 34°27' E 135°12'1012.8
2017-Jun-20 11:15N 34°21' E 135°03'612.8
2017-Jun-20 10:49N 34°16' E 134°59'1310.7
2017-Jun-20 09:36N 34°29' E 135°04'212.5
2017-Jun-20 09:28N 34°30' E 135°05'4 9.4
2017-Jun-20 09:00N 34°34' E 135°07'4 7.2
2017-Jun-20 08:30N 34°36' E 135°03'2 0.1
2017-Jun-19 05:11N 34°37' E 135°01'210.5
2017-Jun-19 05:00N 34°36' E 135°03'4 8.0
2017-Jun-19 04:30N 34°35' E 135°08'4 7.1
2017-Jun-19 03:56N 34°31' E 135°07'611.5
2017-Jun-19 03:26N 34°26' E 135°04'1112.8
2017-Jun-19 02:36N 34°16' E 134°59'110.7
2017-Jun-19 02:29N 34°15' E 134°59'4 9.4
2017-Jun-19 02:00N 34°11' E 134°60'611.4
2017-Jun-19 01:30N 34°13' E 135°06'2 4.7
2017-Jun-19 01:00N 34°13' E 135°09'0 0.0
2017-Jun-19 00:30N 34°13' E 135°09'0 0.0
2017-Jun-19 00:00N 34°13' E 135°09'0 0.0
2017-Jun-18 23:30N 34°13' E 135°09'0 0.0
2017-Jun-18 23:00N 34°13' E 135°09'0 0.0
2017-Jun-18 22:30N 34°13' E 135°09'0 0.0
2017-Jun-18 22:00N 34°13' E 135°09'0 0.0
2017-Jun-18 21:30N 34°13' E 135°09'0 0.0
2017-Jun-18 21:00N 34°13' E 135°09'0 0.0
2017-Jun-18 20:30N 34°13' E 135°09'0 0.0
2017-Jun-18 20:00N 34°13' E 135°09'0 0.0
2017-Jun-18 19:30N 34°13' E 135°09'0 0.0
2017-Jun-18 19:00N 34°13' E 135°09'0 0.0
2017-Jun-18 18:30N 34°13' E 135°09'0 0.0
2017-Jun-18 17:57N 34°13' E 135°09'0 0.0
2017-Jun-18 17:27N 34°13' E 135°09'0 0.0
2017-Jun-18 17:00N 34°13' E 135°09'0 0.0
2017-Jun-18 16:30N 34°13' E 135°09'0 0.0
2017-Jun-18 16:00N 34°13' E 135°09'0 0.0
2017-Jun-18 15:30N 34°13' E 135°09'0 0.0
2017-Jun-18 15:00N 34°13' E 135°09'0 0.0
2017-Jun-18 14:00N 34°13' E 135°09'0 0.0
2017-Jun-18 13:30N 34°13' E 135°09'0 0.0
2017-Jun-18 13:00N 34°13' E 135°09'0 0.0
2017-Jun-18 12:30N 34°13' E 135°09'0 0.0
2017-Jun-18 12:00N 34°13' E 135°09'0 0.0
2017-Jun-18 11:30N 34°13' E 135°09'0 0.0
2017-Jun-18 11:00N 34°13' E 135°09'0 0.0
2017-Jun-18 10:30N 34°13' E 135°09'0 0.0
2017-Jun-18 10:00N 34°13' E 135°09'0 0.0
2017-Jun-18 09:30N 34°13' E 135°09'0 0.0
2017-Jun-18 09:00N 34°13' E 135°09'0 0.0
2017-Jun-18 08:27N 34°13' E 135°09'0 0.0
2017-Jun-18 08:00N 34°13' E 135°09'0 0.0
2017-Jun-18 07:30N 34°13' E 135°09'0 0.0
2017-Jun-18 07:00N 34°13' E 135°09'0 0.0
2017-Jun-18 06:30N 34°13' E 135°09'0 0.0
2017-Jun-18 06:00N 34°13' E 135°09'0 0.0
2017-Jun-18 05:30N 34°13' E 135°09'0 0.0
2017-Jun-18 05:00N 34°13' E 135°09'1 3.0
2017-Jun-18 04:30N 34°13' E 135°07'6 9.4
2017-Jun-18 03:50N 34°19' E 135°04'511.8
2017-Jun-18 03:23N 34°22' E 135°10'612.5
2017-Jun-18 02:56N 34°25' E 135°15'612.6
2017-Jun-18 02:28N 34°29' E 135°20'3 5.4
2017-Jun-18 01:51N 34°31' E 135°24'510.3
2017-Jun-18 01:24N 34°33' E 135°19'511.1
2017-Jun-18 00:58N 34°33' E 135°25'1 1.0
2017-Jun-18 00:16N 34°33' E 135°25'0 0.3
2017-Jun-17 23:55N 34°33' E 135°25'0 0.1
2017-Jun-17 23:25N 34°33' E 135°25'0 0.1
2017-Jun-17 22:55N 34°33' E 135°25'0 0.0
2017-Jun-17 22:28N 34°33' E 135°25'0 0.1
2017-Jun-17 21:35N 34°33' E 135°25'0 0.0
2017-Jun-17 21:30N 34°33' E 135°25'0 0.0
2017-Jun-17 20:58N 34°33' E 135°25'0 0.1
2017-Jun-17 20:29N 34°33' E 135°25'0 0.1
2017-Jun-17 19:57N 34°33' E 135°25'0 0.1
2017-Jun-17 19:28N 34°33' E 135°25'0 0.1
2017-Jun-17 19:00N 34°33' E 135°25'0 0.0
2017-Jun-17 18:23N 34°33' E 135°25'0 0.1
2017-Jun-17 17:59N 34°33' E 135°25'0 0.1
2017-Jun-17 17:30N 34°33' E 135°25'0 0.0
2017-Jun-17 16:32N 34°33' E 135°25'0 0.1
2017-Jun-17 16:28N 34°33' E 135°25'0 0.0
2017-Jun-17 15:53N 34°33' E 135°25'0 0.1
2017-Jun-17 15:27N 34°33' E 135°25'0 0.0
2017-Jun-17 14:53N 34°33' E 135°25'0 0.0
2017-Jun-17 13:52N 34°33' E 135°25'0 0.1
2017-Jun-17 13:30N 34°33' E 135°25'0 0.1
2017-Jun-17 12:52N 34°33' E 135°25'0 0.1
2017-Jun-17 12:28N 34°33' E 135°25'0 0.0
2017-Jun-17 11:50N 34°33' E 135°25'0 0.1
2017-Jun-17 11:25N 34°33' E 135°25'0 0.1
2017-Jun-17 10:58N 34°33' E 135°25'0 0.0
2017-Jun-17 10:21N 34°33' E 135°25'0 0.1
2017-Jun-17 09:58N 34°33' E 135°25'0 0.0
2017-Jun-17 09:29N 34°33' E 135°25'0 0.0
2017-Jun-17 09:00N 34°33' E 135°25'0 0.0
2017-Jun-17 08:27N 34°33' E 135°25'0 0.2
2017-Jun-17 08:00N 34°33' E 135°25'0 0.2
2017-Jun-17 07:30N 34°33' E 135°25'0 0.1
2017-Jun-17 06:59N 34°33' E 135°25'0 0.0
2017-Jun-17 06:29N 34°33' E 135°25'0 0.1
2017-Jun-17 05:59N 34°33' E 135°25'0 0.1
2017-Jun-17 04:58N 34°33' E 135°25'0 0.1
2017-Jun-17 04:30N 34°33' E 135°25'0 0.0
2017-Jun-17 02:06N 34°33' E 135°25'0 1.3
2017-Jun-17 01:56N 34°33' E 135°25'4 4.8
2017-Jun-17 01:10N 34°33' E 135°21'1 2.2
2017-Jun-17 00:55N 34°33' E 135°20'0 0.4
2017-Jun-17 00:21N 34°33' E 135°20'3 7.9
2017-Jun-17 00:00N 34°33' E 135°24'2 0.1
2017-Jun-15 17:49N 34°33' E 135°27'0 0.0
2017-Jun-15 12:24N 34°33' E 135°27'0 0.0
2017-Jun-15 12:00N 34°33' E 135°27'0 0.0
2017-Jun-15 11:30N 34°33' E 135°27'0 0.0
2017-Jun-15 11:00N 34°33' E 135°27'0 0.0
2017-Jun-15 10:24N 34°33' E 135°27'0 0.0
2017-Jun-15 10:00N 34°33' E 135°27'0 0.0
2017-Jun-15 09:24N 34°33' E 135°27'0 0.0
2017-Jun-15 09:00N 34°33' E 135°27'0 0.0
2017-Jun-15 08:30N 34°33' E 135°27'0 0.0
2017-Jun-15 07:54N 34°33' E 135°27'0 0.0
2017-Jun-15 07:18N 34°33' E 135°27'0 0.0
2017-Jun-15 06:54N 34°33' E 135°27'0 0.0
2017-Jun-14 22:50N 34°33' E 135°27'2 5.3
2017-Jun-14 22:30N 34°33' E 135°24'1 1.9
2017-Jun-14 21:59N 34°33' E 135°25'1 2.0
2017-Jun-14 21:30N 34°33' E 135°27'0 0.0
2017-Jun-14 15:55N 34°33' E 135°27'0 0.0
2017-Jun-14 15:25N 34°33' E 135°27'0 0.0
2017-Jun-14 14:49N 34°33' E 135°27'0 0.0
2017-Jun-14 13:55N 34°33' E 135°27'0 0.0
2017-Jun-14 13:13N 34°33' E 135°27'0 0.0
2017-Jun-14 12:49N 34°33' E 135°27'0 0.0
2017-Jun-14 11:25N 34°33' E 135°27'0 0.0
2017-Jun-14 10:31N 34°33' E 135°27'0 0.0
2017-Jun-14 10:19N 34°33' E 135°27'0 0.0
2017-Jun-14 09:55N 34°33' E 135°27'0 0.0
2017-Jun-14 09:19N 34°33' E 135°27'0 0.0
2017-Jun-14 06:23N 34°33' E 135°27'3 8.7
2017-Jun-14 06:00N 34°35' E 135°23'4 8.1
2017-Jun-14 05:30N 34°39' E 135°26'1 0.8
2017-Jun-14 04:43N 34°38' E 135°26'0 0.3
2017-Jun-14 04:30N 34°38' E 135°27'1 2.7
2017-Jun-14 03:58N 34°39' E 135°25'6 1.4
2017-Jun-13 23:50N 34°33' E 135°24'0 0.3
2017-Jun-13 23:30N 34°33' E 135°24'1 2.3
2017-Jun-13 23:00N 34°33' E 135°23'3 4.7
2017-Jun-13 22:27N 34°33' E 135°20'1 1.9
2017-Jun-13 22:00N 34°33' E 135°21'5 9.4
2017-Jun-13 21:30N 34°33' E 135°26'0 0.6
2017-Jun-13 20:45N 34°33' E 135°27'0 0.0
2017-Jun-13 20:25N 34°33' E 135°27'0 0.0
2017-Jun-13 19:59N 34°33' E 135°27'0 0.0
2017-Jun-13 19:19N 34°33' E 135°27'0 0.0
2017-Jun-13 18:53N 34°33' E 135°27'0 0.0
2017-Jun-13 18:29N 34°33' E 135°27'  
Track history (hours):
 
Tides and Currents Weather Stations Pressure Air Temp Water Temp Dewpoint Dewpoint Depression Visibility Wind Speed Wind Dir Waves Ship Positions

Kasagimaru

Last reported at 2017-Jun-23 07:36 UTC. Time now 2017-Jun-23 10:37 UTC.
Position N 34°33' E 135°27'.

Length 42 m; draft 3.5 m.

Type: Tug. MMSI: 431300268.

Date/timePositionNaut miles runAvg speedWind from/ knotsBaromVisibWave heightAir tempDewpointWater temp
2017-Jun-23 07:36N 34°33' E 135°27'0 0.0
2017-Jun-23 07:28N 34°33' E 135°27'0 0.0
2017-Jun-23 06:59N 34°33' E 135°27'4 8.3
2017-Jun-23 06:31N 34°36' E 135°23'4 7.6
2017-Jun-23 06:00N 34°38' E 135°27'0 0.4
2017-Jun-23 05:31N 34°39' E 135°26'2 3.7
2017-Jun-23 05:00N 34°39' E 135°24'5 9.2
2017-Jun-23 04:26N 34°33' E 135°25'2 1.0
2017-Jun-23 02:47N 34°33' E 135°27'0 0.0
2017-Jun-23 02:15N 34°33' E 135°27'0 0.0
2017-Jun-23 01:53N 34°33' E 135°27'0 0.0
2017-Jun-23 01:30N 34°33' E 135°27'0 0.1
2017-Jun-23 00:59N 34°33' E 135°27'2 4.4
2017-Jun-23 00:31N 34°33' E 135°24'0 0.5
2017-Jun-22 23:59N 34°34' E 135°24'2 0.1
2017-Jun-22 02:26N 34°33' E 135°27'2 4.1
2017-Jun-22 01:59N 34°33' E 135°24'0 0.1
2017-Jun-22 01:16N 34°33' E 135°24'0 0.2
2017-Jun-22 00:59N 34°33' E 135°24'3 5.2
2017-Jun-22 00:22N 34°33' E 135°20'0 0.3
2017-Jun-22 00:00N 34°33' E 135°20'4 7.4
2017-Jun-21 23:30N 34°33' E 135°25'2 0.1
2017-Jun-21 00:18N 34°33' E 135°27'0 0.0
2017-Jun-20 23:57N 34°33' E 135°27'0 0.0
2017-Jun-20 23:24N 34°33' E 135°27'0 0.0
2017-Jun-20 21:39N 34°33' E 135°27'2 7.8
2017-Jun-20 21:25N 34°33' E 135°24'2 4.1
2017-Jun-20 21:00N 34°32' E 135°24'1 1.8
2017-Jun-20 20:30N 34°33' E 135°24'2 4.6
2017-Jun-20 19:59N 34°33' E 135°27'0 0.0
2017-Jun-20 13:07N 34°33' E 135°27'1 9.7
2017-Jun-20 12:58N 34°33' E 135°25'612.6
2017-Jun-20 12:29N 34°30' E 135°18'612.9
2017-Jun-20 12:00N 34°27' E 135°12'1012.8
2017-Jun-20 11:15N 34°21' E 135°03'612.8
2017-Jun-20 10:49N 34°16' E 134°59'1310.7
2017-Jun-20 09:36N 34°29' E 135°04'212.5
2017-Jun-20 09:28N 34°30' E 135°05'4 9.4
2017-Jun-20 09:00N 34°34' E 135°07'4 7.2
2017-Jun-20 08:30N 34°36' E 135°03'2 0.1
2017-Jun-19 05:11N 34°37' E 135°01'210.5
2017-Jun-19 05:00N 34°36' E 135°03'4 8.0
2017-Jun-19 04:30N 34°35' E 135°08'4 7.1
2017-Jun-19 03:56N 34°31' E 135°07'611.5
2017-Jun-19 03:26N 34°26' E 135°04'1112.8
2017-Jun-19 02:36N 34°16' E 134°59'110.7
2017-Jun-19 02:29N 34°15' E 134°59'4 9.4
2017-Jun-19 02:00N 34°11' E 134°60'611.4
2017-Jun-19 01:30N 34°13' E 135°06'2 4.7
2017-Jun-19 01:00N 34°13' E 135°09'0 0.0
2017-Jun-19 00:30N 34°13' E 135°09'0 0.0
2017-Jun-19 00:00N 34°13' E 135°09'0 0.0
2017-Jun-18 23:30N 34°13' E 135°09'0 0.0
2017-Jun-18 23:00N 34°13' E 135°09'0 0.0
2017-Jun-18 22:30N 34°13' E 135°09'0 0.0
2017-Jun-18 22:00N 34°13' E 135°09'0 0.0
2017-Jun-18 21:30N 34°13' E 135°09'0 0.0
2017-Jun-18 21:00N 34°13' E 135°09'0 0.0
2017-Jun-18 20:30N 34°13' E 135°09'0 0.0
2017-Jun-18 20:00N 34°13' E 135°09'0 0.0
2017-Jun-18 19:30N 34°13' E 135°09'0 0.0
2017-Jun-18 19:00N 34°13' E 135°09'0 0.0
2017-Jun-18 18:30N 34°13' E 135°09'0 0.0
2017-Jun-18 17:57N 34°13' E 135°09'0 0.0
2017-Jun-18 17:27N 34°13' E 135°09'0 0.0
2017-Jun-18 17:00N 34°13' E 135°09'0 0.0
2017-Jun-18 16:30N 34°13' E 135°09'0 0.0
2017-Jun-18 16:00N 34°13' E 135°09'0 0.0
2017-Jun-18 15:30N 34°13' E 135°09'0 0.0
2017-Jun-18 15:00N 34°13' E 135°09'0 0.0
2017-Jun-18 14:00N 34°13' E 135°09'0 0.0
2017-Jun-18 13:30N 34°13' E 135°09'0 0.0
2017-Jun-18 13:00N 34°13' E 135°09'0 0.0
2017-Jun-18 12:30N 34°13' E 135°09'0 0.0
2017-Jun-18 12:00N 34°13' E 135°09'0 0.0
2017-Jun-18 11:30N 34°13' E 135°09'0 0.0
2017-Jun-18 11:00N 34°13' E 135°09'0 0.0
2017-Jun-18 10:30N 34°13' E 135°09'0 0.0
2017-Jun-18 10:00N 34°13' E 135°09'0 0.0
2017-Jun-18 09:30N 34°13' E 135°09'0 0.0
2017-Jun-18 09:00N 34°13' E 135°09'0 0.0
2017-Jun-18 08:27N 34°13' E 135°09'0 0.0
2017-Jun-18 08:00N 34°13' E 135°09'0 0.0
2017-Jun-18 07:30N 34°13' E 135°09'0 0.0
2017-Jun-18 07:00N 34°13' E 135°09'0 0.0
2017-Jun-18 06:30N 34°13' E 135°09'0 0.0
2017-Jun-18 06:00N 34°13' E 135°09'0 0.0
2017-Jun-18 05:30N 34°13' E 135°09'0 0.0
2017-Jun-18 05:00N 34°13' E 135°09'1 3.0
2017-Jun-18 04:30N 34°13' E 135°07'6 9.4
2017-Jun-18 03:50N 34°19' E 135°04'511.8
2017-Jun-18 03:23N 34°22' E 135°10'612.5
2017-Jun-18 02:56N 34°25' E 135°15'612.6
2017-Jun-18 02:28N 34°29' E 135°20'3 5.4
2017-Jun-18 01:51N 34°31' E 135°24'510.3
2017-Jun-18 01:24N 34°33' E 135°19'511.1
2017-Jun-18 00:58N 34°33' E 135°25'1 1.0
2017-Jun-18 00:16N 34°33' E 135°25'0 0.3
2017-Jun-17 23:55N 34°33' E 135°25'0 0.1
2017-Jun-17 23:25N 34°33' E 135°25'0 0.1
2017-Jun-17 22:55N 34°33' E 135°25'0 0.0
2017-Jun-17 22:28N 34°33' E 135°25'0 0.1
2017-Jun-17 21:35N 34°33' E 135°25'0 0.0
2017-Jun-17 21:30N 34°33' E 135°25'0 0.0
2017-Jun-17 20:58N 34°33' E 135°25'0 0.1
2017-Jun-17 20:29N 34°33' E 135°25'0 0.1
2017-Jun-17 19:57N 34°33' E 135°25'0 0.1
2017-Jun-17 19:28N 34°33' E 135°25'0 0.1
2017-Jun-17 19:00N 34°33' E 135°25'0 0.0
2017-Jun-17 18:23N 34°33' E 135°25'0 0.1
2017-Jun-17 17:59N 34°33' E 135°25'0 0.1
2017-Jun-17 17:30N 34°33' E 135°25'0 0.0
2017-Jun-17 16:32N 34°33' E 135°25'0 0.1
2017-Jun-17 16:28N 34°33' E 135°25'0 0.0
2017-Jun-17 15:53N 34°33' E 135°25'0 0.1
2017-Jun-17 15:27N 34°33' E 135°25'0 0.0
2017-Jun-17 14:53N 34°33' E 135°25'0 0.0
2017-Jun-17 13:52N 34°33' E 135°25'0 0.1
2017-Jun-17 13:30N 34°33' E 135°25'0 0.1
2017-Jun-17 12:52N 34°33' E 135°25'0 0.1
2017-Jun-17 12:28N 34°33' E 135°25'0 0.0
2017-Jun-17 11:50N 34°33' E 135°25'0 0.1
2017-Jun-17 11:25N 34°33' E 135°25'0 0.1
2017-Jun-17 10:58N 34°33' E 135°25'0 0.0
2017-Jun-17 10:21N 34°33' E 135°25'0 0.1
2017-Jun-17 09:58N 34°33' E 135°25'0 0.0
2017-Jun-17 09:29N 34°33' E 135°25'0 0.0
2017-Jun-17 09:00N 34°33' E 135°25'0 0.0
2017-Jun-17 08:27N 34°33' E 135°25'0 0.2
2017-Jun-17 08:00N 34°33' E 135°25'0 0.2
2017-Jun-17 07:30N 34°33' E 135°25'0 0.1
2017-Jun-17 06:59N 34°33' E 135°25'0 0.0
2017-Jun-17 06:29N 34°33' E 135°25'0 0.1
2017-Jun-17 05:59N 34°33' E 135°25'0 0.1
2017-Jun-17 04:58N 34°33' E 135°25'0 0.1
2017-Jun-17 04:30N 34°33' E 135°25'0 0.0
2017-Jun-17 02:06N 34°33' E 135°25'0 1.3
2017-Jun-17 01:56N 34°33' E 135°25'4 4.8
2017-Jun-17 01:10N 34°33' E 135°21'1 2.2
2017-Jun-17 00:55N 34°33' E 135°20'0 0.4
2017-Jun-17 00:21N 34°33' E 135°20'3 7.9
2017-Jun-17 00:00N 34°33' E 135°24'2 0.1
2017-Jun-15 17:49N 34°33' E 135°27'0 0.0
2017-Jun-15 12:24N 34°33' E 135°27'0 0.0
2017-Jun-15 12:00N 34°33' E 135°27'0 0.0
2017-Jun-15 11:30N 34°33' E 135°27'0 0.0
2017-Jun-15 11:00N 34°33' E 135°27'0 0.0
2017-Jun-15 10:24N 34°33' E 135°27'0 0.0
2017-Jun-15 10:00N 34°33' E 135°27'0 0.0
2017-Jun-15 09:24N 34°33' E 135°27'0 0.0
2017-Jun-15 09:00N 34°33' E 135°27'0 0.0
2017-Jun-15 08:30N 34°33' E 135°27'0 0.0
2017-Jun-15 07:54N 34°33' E 135°27'0 0.0
2017-Jun-15 07:18N 34°33' E 135°27'0 0.0
2017-Jun-15 06:54N 34°33' E 135°27'0 0.0
2017-Jun-14 22:50N 34°33' E 135°27'2 5.3
2017-Jun-14 22:30N 34°33' E 135°24'1 1.9
2017-Jun-14 21:59N 34°33' E 135°25'1 2.0
2017-Jun-14 21:30N 34°33' E 135°27'0 0.0
2017-Jun-14 15:55N 34°33' E 135°27'0 0.0
2017-Jun-14 15:25N 34°33' E 135°27'0 0.0
2017-Jun-14 14:49N 34°33' E 135°27'0 0.0
2017-Jun-14 13:55N 34°33' E 135°27'0 0.0
2017-Jun-14 13:13N 34°33' E 135°27'0 0.0
2017-Jun-14 12:49N 34°33' E 135°27'0 0.0
2017-Jun-14 11:25N 34°33' E 135°27'0 0.0
2017-Jun-14 10:31N 34°33' E 135°27'0 0.0
2017-Jun-14 10:19N 34°33' E 135°27'0 0.0
2017-Jun-14 09:55N 34°33' E 135°27'0 0.0
2017-Jun-14 09:19N 34°33' E 135°27'0 0.0
2017-Jun-14 06:23N 34°33' E 135°27'3 8.7
2017-Jun-14 06:00N 34°35' E 135°23'4 8.1
2017-Jun-14 05:30N 34°39' E 135°26'1 0.8
2017-Jun-14 04:43N 34°38' E 135°26'0 0.3
2017-Jun-14 04:30N 34°38' E 135°27'1 2.7
2017-Jun-14 03:58N 34°39' E 135°25'6 1.4
2017-Jun-13 23:50N 34°33' E 135°24'0 0.3
2017-Jun-13 23:30N 34°33' E 135°24'1 2.3
2017-Jun-13 23:00N 34°33' E 135°23'3 4.7
2017-Jun-13 22:27N 34°33' E 135°20'1 1.9
2017-Jun-13 22:00N 34°33' E 135°21'5 9.4
2017-Jun-13 21:30N 34°33' E 135°26'0 0.6
2017-Jun-13 20:45N 34°33' E 135°27'0 0.0
2017-Jun-13 20:25N 34°33' E 135°27'0 0.0
2017-Jun-13 19:59N 34°33' E 135°27'0 0.0
2017-Jun-13 19:19N 34°33' E 135°27'0 0.0
2017-Jun-13 18:53N 34°33' E 135°27'0 0.0
2017-Jun-13 18:29N 34°33' E 135°27'  

Dump ship's entire track history